createdAt,value
2023-03-08T05:40:18.581Z,2.29
2023-03-08T05:43:22.297Z,2.15
2023-03-08T05:46:24.926Z,2.61
2023-03-08T05:49:27.522Z,2.85
2023-03-08T05:52:34.139Z,2.49
2023-03-08T05:55:37.168Z,2.74
2023-03-08T05:58:42.606Z,2.57
2023-03-08T06:01:45.782Z,2.91
2023-03-08T06:04:58.006Z,2.58
2023-03-08T06:08:00.847Z,2.53
2023-03-08T06:11:03.563Z,2.66
2023-03-08T06:14:06.103Z,2.64
2023-03-08T06:17:08.635Z,2.82
2023-03-08T06:20:16.715Z,3.14
2023-03-08T06:23:19.327Z,3.13
2023-03-08T06:26:22.015Z,2.81
2023-03-08T06:29:24.543Z,3.25
2023-03-08T06:32:27.111Z,2.93
2023-03-08T06:35:29.749Z,3.16
2023-03-08T06:38:33.630Z,3.35
2023-03-08T06:41:36.274Z,3.41
2023-03-08T06:44:40.069Z,3.40
2023-03-08T06:47:42.664Z,3.32
2023-03-08T06:50:45.254Z,3.60
2023-03-08T06:53:47.920Z,3.75
2023-03-08T06:56:50.528Z,3.82
2023-03-08T06:59:53.117Z,4.05
2023-03-08T07:02:56.074Z,4.18
2023-03-08T07:06:04.217Z,4.23
2023-03-08T07:09:06.819Z,4.36
2023-03-08T07:12:09.462Z,4.33
2023-03-08T07:15:14.696Z,4.59
2023-03-08T07:18:17.257Z,4.82
2023-03-08T07:21:19.758Z,4.78
2023-03-08T07:24:22.991Z,5.04
2023-03-08T07:27:25.633Z,4.96
2023-03-08T07:30:28.357Z,5.13
2023-03-08T07:33:33.336Z,5.16
2023-03-08T07:36:36.235Z,5.31
2023-03-08T07:39:38.946Z,5.49
2023-03-08T07:42:41.540Z,5.51
2023-03-08T07:45:44.157Z,5.64
2023-03-08T07:48:46.779Z,5.83
2023-03-08T07:51:51.251Z,5.82
2023-03-08T07:54:53.867Z,6.21
2023-03-08T07:57:56.423Z,6.49
2023-03-08T08:00:59.036Z,6.70
2023-03-08T08:04:01.616Z,6.59
2023-03-08T08:07:05.152Z,6.69
2023-03-08T08:10:08.412Z,7.03
2023-03-08T08:13:11.042Z,7.39
2023-03-08T08:16:15.694Z,7.82
2023-03-08T08:19:18.746Z,7.89
2023-03-08T08:22:21.173Z,8.08
2023-03-08T08:25:23.858Z,8.01
2023-03-08T08:28:26.689Z,7.90
2023-03-08T08:31:31.320Z,8.35
2023-03-08T08:34:33.948Z,8.43
2023-03-08T08:37:36.595Z,8.59
2023-03-08T08:40:39.258Z,8.61
2023-03-08T08:43:41.955Z,8.81
2023-03-08T08:46:45.430Z,8.88
2023-03-08T08:49:48.290Z,8.91
2023-03-08T08:52:50.861Z,8.81
2023-03-08T08:55:53.506Z,8.69
2023-03-08T08:58:57.105Z,8.82
2023-03-08T09:01:59.975Z,9.18
2023-03-08T09:05:02.723Z,9.02
2023-03-08T09:08:05.495Z,9.09
2023-03-08T09:11:09.376Z,9.36
2023-03-08T09:14:11.895Z,9.24
2023-03-08T09:17:14.515Z,9.44
2023-03-08T09:20:17.506Z,9.37
2023-03-08T09:23:20.323Z,9.41
2023-03-08T09:26:22.913Z,9.32
2023-03-08T09:29:25.754Z,9.15
2023-03-08T09:32:28.320Z,9.23
2023-03-08T09:35:30.996Z,9.34
2023-03-08T09:38:33.584Z,9.49
2023-03-08T09:41:41.090Z,9.26
2023-03-08T09:45:02.553Z,9.67
2023-03-08T09:48:07.842Z,9.43
2023-03-08T09:51:11.342Z,9.39
2023-03-08T09:54:17.258Z,9.87
2023-03-08T09:57:24.236Z,9.88
2023-03-08T10:00:32.769Z,10.01
2023-03-08T10:03:59.706Z,9.80
2023-03-08T10:07:33.000Z,9.88
2023-03-08T10:11:02.875Z,9.70
2023-03-08T10:14:19.941Z,10.05
2023-03-08T10:17:26.236Z,9.96
2023-03-08T10:20:30.454Z,9.98
2023-03-08T10:23:33.753Z,10.55
2023-03-08T10:26:36.431Z,10.63
2023-03-08T10:29:39.002Z,10.75
2023-03-08T10:32:45.661Z,10.87
2023-03-08T10:36:06.338Z,10.93
2023-03-08T10:39:10.227Z,11.12
2023-03-08T10:42:16.456Z,11.19
2023-03-08T10:45:22.743Z,11.16
2023-03-08T10:48:25.336Z,10.96
2023-03-08T10:51:28.924Z,11.25
2023-03-08T10:54:31.847Z,10.74
2023-03-08T10:57:34.690Z,10.54
2023-03-08T11:00:41.288Z,10.76
2023-03-08T11:03:43.950Z,10.91
2023-03-08T11:06:46.559Z,10.90
2023-03-08T11:09:49.187Z,11.02
2023-03-08T11:13:01.225Z,11.22
2023-03-08T11:16:25.528Z,11.44
2023-03-08T11:20:00.175Z,11.53
2023-03-08T11:23:25.807Z,11.70
2023-03-08T11:26:36.341Z,11.59
2023-03-08T11:30:07.628Z,11.61
2023-03-08T11:33:29.198Z,11.89
2023-03-08T11:36:38.819Z,11.49
2023-03-08T11:39:47.222Z,11.79
2023-03-08T11:43:02.160Z,11.70
2023-03-08T11:46:19.120Z,11.62
2023-03-08T11:49:27.413Z,11.83
2023-03-08T11:52:44.455Z,11.93
2023-03-08T11:56:00.829Z,11.70
2023-03-08T11:59:12.137Z,12.01
2023-03-08T12:02:20.791Z,12.06
2023-03-08T12:05:31.094Z,11.89
2023-03-08T12:08:57.669Z,11.64
2023-03-08T12:12:06.088Z,11.87
2023-03-08T12:15:35.273Z,12.03
2023-03-08T12:18:42.876Z,11.98
2023-03-08T12:21:57.840Z,11.98
2023-03-08T12:25:24.391Z,12.09
2023-03-08T12:28:42.065Z,12.12
2023-03-08T12:31:46.131Z,11.91
2023-03-08T12:34:49.049Z,11.95
2023-03-08T12:38:01.945Z,11.91
2023-03-08T12:41:07.270Z,11.83
2023-03-08T12:44:28.126Z,11.81
2023-03-08T12:47:30.668Z,11.82
2023-03-08T12:51:02.905Z,11.74
2023-03-08T12:54:05.512Z,11.79
2023-03-08T12:57:15.870Z,11.70
2023-03-08T13:00:31.786Z,11.89
2023-03-08T13:03:41.536Z,11.97
2023-03-08T13:07:10.444Z,12.09
2023-03-08T13:10:21.626Z,12.26
2023-03-08T13:13:38.137Z,12.28
2023-03-08T13:16:41.475Z,12.12
2023-03-08T13:19:45.395Z,12.15
2023-03-08T13:23:02.358Z,12.11
2023-03-08T13:26:50.341Z,12.12
2023-03-08T13:29:55.124Z,12.12
2023-03-08T13:32:57.775Z,12.08
2023-03-08T13:36:14.038Z,12.13
2023-03-08T13:39:20.139Z,12.33
2023-03-08T13:42:26.936Z,12.44
2023-03-08T13:45:29.770Z,12.36
2023-03-08T13:48:34.962Z,12.59
2023-03-08T13:51:37.316Z,12.50
2023-03-08T13:54:46.988Z,12.39
2023-03-08T13:57:52.371Z,12.43
2023-03-08T14:01:02.017Z,12.45
2023-03-08T14:04:11.115Z,12.50
2023-03-08T14:07:34.678Z,12.51
2023-03-08T14:10:40.345Z,12.49
2023-03-08T14:13:46.138Z,12.68
2023-03-08T14:16:48.695Z,12.57
2023-03-08T14:19:56.392Z,12.35
2023-03-08T14:22:59.095Z,12.48
2023-03-08T14:26:01.682Z,12.40
2023-03-08T14:29:21.973Z,12.40
2023-03-08T14:32:30.215Z,12.54
2023-03-08T14:35:37.378Z,12.42
2023-03-08T14:38:40.047Z,12.53
2023-03-08T14:41:42.676Z,12.46
2023-03-08T14:44:53.720Z,12.37
2023-03-08T14:47:58.465Z,12.47
2023-03-08T14:51:04.126Z,12.50
2023-03-08T14:54:32.968Z,12.50
2023-03-08T14:57:35.547Z,12.60
2023-03-08T15:00:48.175Z,12.61
2023-03-08T15:03:50.795Z,12.50
2023-03-08T15:06:54.086Z,12.57
2023-03-08T15:09:56.603Z,12.64
2023-03-08T15:12:59.354Z,12.43
2023-03-08T15:16:01.912Z,12.56
2023-03-08T15:19:04.662Z,12.55
2023-03-08T15:22:07.341Z,12.59
2023-03-08T15:25:31.177Z,12.55
2023-03-08T15:28:33.808Z,12.43
2023-03-08T15:31:36.422Z,12.53
2023-03-08T15:34:39.749Z,12.36
2023-03-08T15:37:42.791Z,12.50
2023-03-08T15:40:45.383Z,12.54
2023-03-08T15:43:48.786Z,12.59
2023-03-08T15:46:52.894Z,12.80
2023-03-08T15:49:55.677Z,12.35
